Accueil
METAR-TAF:

METAR-TAF

Aéroports :

Prague, République Tchèque

latitude: 50-12-59N, longitude: 014-23-42E, altitude: 280 m

Observation

Le bulletin a été fait il y a 8 heures et 21 minutes, à 14:00 UTC
Vent 4 kt de est, variant entre nord et sud/sud-est
Température 31°C
Humidité 38%
Pression 1012 hPa
Visibilité 10 km ou plus
pas de nuages en-dessous de 1500 mètres et pas de cumulonimbus.

METAR: LKVO 171400Z 08004KT 010V150 CAVOK 31/15 Q1012

Heure: 00:21 (22:21 UTC)


TAF: absent

Observations et prévisions météorologiques de plus de 4000 aéroports (messages METAR et TAF).

Les stations disponibles sont représentées par des disques jaunes et rouges sur la carte.

Passer la souris dessus pour voir le nom de la station.

Cliquer dessus pour voir les observations et prévisions météorologiques.

Pour changer de carte: cliquez sur les boutons verts avec une croix noire pour zoomer, sur le bouton vert avec un tiret pour effectuer un zoom arrière, ou sur les flèches vertes pour les cartes adjacentes.


METAR-TAF: